createdAt,value
2018-02-18T00:02:00.850Z,2.29
2018-02-18T00:04:28.314Z,2.09
2018-02-18T00:06:57.601Z,2.12
2018-02-18T00:09:25.329Z,2.19
2018-02-18T00:11:52.792Z,2.09
2018-02-18T00:14:24.181Z,2.03
2018-02-18T00:16:52.017Z,2.01
2018-02-18T00:19:19.476Z,1.76
2018-02-18T00:21:46.945Z,1.99
2018-02-18T00:24:14.705Z,1.91
2018-02-18T00:26:42.189Z,1.93
2018-02-18T00:29:09.645Z,1.96
2018-02-18T00:31:38.318Z,1.87
2018-02-18T00:34:05.782Z,1.93
2018-02-18T00:36:33.241Z,1.87
2018-02-18T00:39:00.950Z,1.99
2018-02-18T00:41:28.406Z,1.96
2018-02-18T00:43:55.860Z,1.91
2018-02-18T00:46:23.684Z,1.85
2018-02-18T00:48:51.136Z,1.79
2018-02-18T00:51:18.593Z,1.76
2018-02-18T00:53:46.374Z,1.68
2018-02-18T00:56:13.840Z,1.70
2018-02-18T00:58:41.317Z,1.62
2018-02-18T01:01:09.370Z,1.83
2018-02-18T01:03:36.837Z,1.81
2018-02-18T01:06:04.301Z,1.81
2018-02-18T01:08:32.665Z,1.81
2018-02-18T01:11:00.125Z,1.78
2018-02-18T01:13:27.585Z,1.76
2018-02-18T01:15:55.605Z,1.76
2018-02-18T01:18:23.068Z,1.91
2018-02-18T01:20:50.533Z,1.72
2018-02-18T01:23:18.226Z,1.58
2018-02-18T01:25:49.477Z,1.56
2018-02-18T01:28:16.937Z,1.56
2018-02-18T01:30:44.711Z,1.51
2018-02-18T01:33:12.175Z,1.65
2018-02-18T01:35:39.635Z,1.63
2018-02-18T01:38:07.326Z,1.52
2018-02-18T01:40:34.785Z,1.65
2018-02-18T01:43:02.258Z,1.69
2018-02-18T01:45:30.406Z,1.67
2018-02-18T01:47:57.865Z,1.61
2018-02-18T01:50:37.320Z,1.74
2018-02-18T01:53:04.776Z,1.89
2018-02-18T01:55:32.245Z,1.65
2018-02-18T01:58:00.034Z,1.69
2018-02-18T02:00:27.497Z,1.53
2018-02-18T02:02:54.955Z,1.49
2018-02-18T02:05:22.681Z,1.61
2018-02-18T02:07:50.139Z,1.62
2018-02-18T02:10:17.673Z,1.68
2018-02-18T02:12:45.358Z,1.63
2018-02-18T02:15:12.821Z,1.66
2018-02-18T02:17:40.289Z,1.54
2018-02-18T02:20:08.048Z,1.54
2018-02-18T02:22:35.509Z,1.50
2018-02-18T02:25:02.982Z,1.60
2018-02-18T02:27:30.736Z,1.62
2018-02-18T02:29:58.198Z,1.63
2018-02-18T02:32:25.662Z,1.73
2018-02-18T02:34:53.417Z,1.70
2018-02-18T02:37:20.881Z,1.63
2018-02-18T02:39:48.347Z,1.59
2018-02-18T02:42:16.120Z,1.60
2018-02-18T02:44:43.581Z,1.65
2018-02-18T02:47:11.038Z,1.72
2018-02-18T02:49:38.823Z,1.82
2018-02-18T02:52:06.300Z,1.67
2018-02-18T02:54:33.760Z,1.73
2018-02-18T02:57:01.484Z,1.82
2018-02-18T02:59:28.955Z,1.78
2018-02-18T03:01:56.420Z,1.90
2018-02-18T03:04:24.183Z,1.83
2018-02-18T03:06:51.654Z,1.72
2018-02-18T03:09:19.109Z,1.65
2018-02-18T03:11:46.861Z,1.67
2018-02-18T03:14:14.322Z,1.63
2018-02-18T03:16:41.780Z,1.62
2018-02-18T03:19:10.153Z,1.55
2018-02-18T03:21:37.616Z,1.61
2018-02-18T03:24:05.085Z,1.54
2018-02-18T03:26:32.846Z,1.61
2018-02-18T03:29:00.309Z,1.58
2018-02-18T03:31:27.769Z,1.53
2018-02-18T03:33:55.534Z,1.46
2018-02-18T03:36:22.992Z,1.54
2018-02-18T03:38:50.453Z,1.55
2018-02-18T03:41:18.537Z,1.51
2018-02-18T03:43:45.997Z,1.55
2018-02-18T03:46:13.450Z,1.61
2018-02-18T03:48:41.209Z,1.70
2018-02-18T03:51:08.684Z,1.57
2018-02-18T03:53:36.151Z,1.63
2018-02-18T03:56:03.893Z,1.59
2018-02-18T03:58:31.359Z,1.59
2018-02-18T04:00:58.822Z,1.57
2018-02-18T04:03:26.588Z,1.58
2018-02-18T04:05:54.057Z,1.54
2018-02-18T04:08:21.531Z,1.50
2018-02-18T04:10:49.280Z,1.51
2018-02-18T04:13:16.810Z,1.47
2018-02-18T04:15:44.257Z,1.59
2018-02-18T04:18:11.969Z,1.57
2018-02-18T04:20:39.420Z,1.54
2018-02-18T04:23:06.895Z,1.61
2018-02-18T04:25:34.650Z,1.50
2018-02-18T04:28:02.113Z,1.50
2018-02-18T04:30:29.588Z,1.47
2018-02-18T04:32:57.599Z,1.53
2018-02-18T04:35:25.100Z,1.53
2018-02-18T04:37:52.566Z,1.50
2018-02-18T04:40:20.535Z,1.42
2018-02-18T04:42:48.007Z,1.39
2018-02-18T04:45:15.459Z,1.45
2018-02-18T04:47:43.310Z,1.47
2018-02-18T04:50:10.766Z,1.44
2018-02-18T04:52:38.234Z,1.36
2018-02-18T04:55:06.323Z,1.32
2018-02-18T04:57:33.806Z,1.44
2018-02-18T05:00:01.262Z,1.44
2018-02-18T05:02:28.993Z,1.45
2018-02-18T05:04:56.454Z,1.48
2018-02-18T05:07:23.910Z,1.34
2018-02-18T05:09:51.681Z,1.44
2018-02-18T05:12:19.145Z,1.36
2018-02-18T05:14:47.302Z,1.43
2018-02-18T05:17:15.298Z,1.38
2018-02-18T05:19:42.757Z,1.38
2018-02-18T05:22:10.218Z,1.36
2018-02-18T05:24:37.941Z,1.31
2018-02-18T05:27:05.411Z,1.33
2018-02-18T05:29:32.873Z,1.32
2018-02-18T05:32:00.677Z,1.34
2018-02-18T05:34:28.138Z,1.26
2018-02-18T05:36:55.597Z,1.37
2018-02-18T05:39:24.589Z,1.36
2018-02-18T05:41:52.057Z,1.31
2018-02-18T05:44:19.517Z,1.32
2018-02-18T05:46:47.685Z,1.33
2018-02-18T05:49:15.145Z,1.31
2018-02-18T05:51:42.622Z,1.37
2018-02-18T05:54:10.540Z,1.29
2018-02-18T05:56:37.989Z,1.26
2018-02-18T05:59:05.445Z,1.38
2018-02-18T06:01:33.272Z,1.42
2018-02-18T06:04:00.725Z,1.25
2018-02-18T06:06:28.189Z,1.41
2018-02-18T06:08:55.950Z,1.44
2018-02-18T06:11:23.408Z,1.51
2018-02-18T06:13:50.870Z,1.57
2018-02-18T06:16:19.245Z,1.59
2018-02-18T06:18:46.713Z,1.55
2018-02-18T06:21:14.176Z,1.62
2018-02-18T06:23:41.937Z,1.59
2018-02-18T06:26:09.397Z,1.87
2018-02-18T06:28:36.857Z,1.78
2018-02-18T06:31:04.619Z,1.70
2018-02-18T06:33:32.076Z,1.70
2018-02-18T06:35:59.534Z,1.62
2018-02-18T06:38:27.302Z,1.65
2018-02-18T06:40:54.760Z,1.66
2018-02-18T06:43:22.305Z,1.75
2018-02-18T06:45:50.027Z,1.70
2018-02-18T06:48:17.497Z,1.73
2018-02-18T06:50:44.960Z,1.76
2018-02-18T06:53:12.635Z,1.83
2018-02-18T06:55:40.105Z,2.00
2018-02-18T06:58:07.566Z,2.08
2018-02-18T07:00:35.657Z,2.10
2018-02-18T07:03:03.116Z,2.15
2018-02-18T07:05:30.573Z,2.18
2018-02-18T07:07:58.289Z,2.16
2018-02-18T07:10:25.748Z,2.08
2018-02-18T07:12:53.225Z,2.11
2018-02-18T07:15:21.060Z,2.13
2018-02-18T07:17:49.130Z,2.12
2018-02-18T07:20:16.591Z,2.15
2018-02-18T07:22:44.346Z,2.16
2018-02-18T07:25:11.851Z,2.21
2018-02-18T07:27:39.292Z,2.22
2018-02-18T07:30:07.037Z,2.10
2018-02-18T07:32:34.493Z,2.10
2018-02-18T07:35:01.965Z,2.06
2018-02-18T07:37:30.341Z,2.14
2018-02-18T07:39:57.803Z,2.36
2018-02-18T07:42:25.266Z,2.11
2018-02-18T07:44:53.026Z,2.02
2018-02-18T07:47:20.488Z,2.06
2018-02-18T07:49:47.950Z,2.26
2018-02-18T07:52:15.670Z,2.46
2018-02-18T07:54:43.124Z,2.52
2018-02-18T07:57:10.589Z,2.36
2018-02-18T07:59:38.276Z,2.40
2018-02-18T08:02:05.730Z,2.56
2018-02-18T08:04:33.189Z,2.72
2018-02-18T08:07:01.080Z,2.88
2018-02-18T08:09:28.576Z,2.94
2018-02-18T08:11:56.038Z,3.02
2018-02-18T08:14:23.777Z,3.06
2018-02-18T08:16:51.235Z,3.22
2018-02-18T08:19:19.114Z,3.35
2018-02-18T08:21:46.762Z,3.50
2018-02-18T08:24:14.222Z,3.60
2018-02-18T08:26:41.688Z,3.57
2018-02-18T08:29:09.454Z,3.77
2018-02-18T08:31:36.913Z,3.85
2018-02-18T08:34:04.381Z,4.37
2018-02-18T08:36:32.132Z,4.15
2018-02-18T08:38:59.577Z,4.34
2018-02-18T08:41:27.034Z,4.26
2018-02-18T08:43:54.883Z,4.23
2018-02-18T08:46:22.333Z,4.26
2018-02-18T08:48:49.801Z,4.20
2018-02-18T08:51:17.505Z,4.46
2018-02-18T08:53:44.970Z,4.49
2018-02-18T08:56:12.416Z,4.26
2018-02-18T08:58:40.213Z,4.13
2018-02-18T09:01:07.664Z,4.04
2018-02-18T09:03:35.116Z,3.94
2018-02-18T09:06:03.197Z,4.69
2018-02-18T09:08:30.661Z,4.83
2018-02-18T09:10:58.122Z,4.54
2018-02-18T09:13:25.879Z,4.35
2018-02-18T09:15:53.349Z,4.41
2018-02-18T09:18:20.808Z,4.58
2018-02-18T09:20:49.174Z,4.78
2018-02-18T09:23:16.638Z,4.62
2018-02-18T09:25:44.081Z,4.77
2018-02-18T09:28:11.908Z,5.00
2018-02-18T09:30:39.333Z,4.98
2018-02-18T09:33:06.798Z,4.85
2018-02-18T09:35:34.472Z,4.96
2018-02-18T09:38:01.925Z,5.10
2018-02-18T09:40:29.380Z,4.89
2018-02-18T09:42:57.546Z,4.92
2018-02-18T09:45:24.997Z,4.99
2018-02-18T09:47:52.470Z,4.71
2018-02-18T09:50:20.244Z,4.55
2018-02-18T09:52:47.702Z,4.40
2018-02-18T09:55:15.164Z,4.38
2018-02-18T09:57:42.822Z,4.52
2018-02-18T10:00:10.282Z,4.51
2018-02-18T10:02:37.836Z,4.68
2018-02-18T10:05:05.601Z,4.69
2018-02-18T10:07:33.049Z,4.70
2018-02-18T10:10:00.502Z,4.85
2018-02-18T10:12:28.288Z,4.93
2018-02-18T10:14:55.737Z,4.61
2018-02-18T10:17:23.199Z,4.82
2018-02-18T10:19:50.905Z,4.81
2018-02-18T10:22:18.818Z,5.06
2018-02-18T10:24:46.270Z,5.34
2018-02-18T10:27:14.286Z,5.60
2018-02-18T10:29:41.745Z,5.46
2018-02-18T10:32:09.199Z,5.16
2018-02-18T10:34:36.965Z,4.94
2018-02-18T10:37:04.434Z,4.98
2018-02-18T10:39:31.889Z,4.87
2018-02-18T10:41:59.660Z,4.82
2018-02-18T10:44:27.114Z,4.97
2018-02-18T10:46:54.580Z,4.86
2018-02-18T10:49:22.220Z,4.69
2018-02-18T10:51:49.682Z,4.71
2018-02-18T10:54:17.188Z,4.55
2018-02-18T10:56:45.251Z,4.50
2018-02-18T10:59:12.733Z,4.56
2018-02-18T11:01:40.192Z,4.60
2018-02-18T11:04:08.025Z,4.60
2018-02-18T11:06:35.489Z,4.90
2018-02-18T11:09:02.969Z,4.86
2018-02-18T11:11:31.166Z,4.81
2018-02-18T11:13:59.541Z,5.01
2018-02-18T11:16:26.996Z,4.87
2018-02-18T11:18:54.945Z,4.98
2018-02-18T11:21:22.404Z,4.97
2018-02-18T11:23:51.462Z,4.90
2018-02-18T11:26:19.172Z,5.02
2018-02-18T11:28:46.621Z,5.25
2018-02-18T11:31:14.078Z,5.56
2018-02-18T11:33:41.893Z,5.71
2018-02-18T11:36:09.359Z,5.48
2018-02-18T11:38:36.817Z,5.69
2018-02-18T11:41:04.498Z,5.93
2018-02-18T11:43:31.974Z,6.30
2018-02-18T11:45:59.428Z,6.12
2018-02-18T11:48:27.266Z,6.55
2018-02-18T11:50:54.729Z,6.66
2018-02-18T11:53:22.189Z,6.59
2018-02-18T11:55:49.918Z,6.66
2018-02-18T11:58:17.380Z,6.96
2018-02-18T12:00:44.834Z,6.90
2018-02-18T12:03:12.882Z,6.95
2018-02-18T12:05:40.362Z,7.20
2018-02-18T12:08:07.818Z,6.88
2018-02-18T12:10:35.588Z,6.79
2018-02-18T12:13:03.037Z,6.85
2018-02-18T12:15:30.504Z,7.03
2018-02-18T12:17:58.568Z,7.91
2018-02-18T12:20:26.024Z,7.61
2018-02-18T12:22:53.480Z,8.09
2018-02-18T12:25:23.720Z,7.29
2018-02-18T12:27:51.173Z,8.12
2018-02-18T12:30:18.620Z,7.81
2018-02-18T12:32:46.429Z,8.67
2018-02-18T12:35:13.882Z,8.89
2018-02-18T12:37:41.331Z,8.85
2018-02-18T12:40:09.099Z,10.21
2018-02-18T12:42:36.552Z,9.13
2018-02-18T12:45:04.010Z,10.02
2018-02-18T12:47:31.802Z,9.94
2018-02-18T12:49:59.267Z,10.61
2018-02-18T12:52:26.713Z,9.44
2018-02-18T12:54:54.708Z,8.86
2018-02-18T12:57:22.157Z,8.89
2018-02-18T12:59:49.644Z,7.24
2018-02-18T13:02:17.486Z,7.32
2018-02-18T13:04:44.938Z,7.35
2018-02-18T13:07:12.393Z,8.37
2018-02-18T13:09:40.105Z,8.15
2018-02-18T13:12:07.576Z,9.62
2018-02-18T13:14:35.037Z,10.08
2018-02-18T13:17:02.849Z,9.49
2018-02-18T13:19:31.532Z,8.38
2018-02-18T13:21:58.981Z,8.68
2018-02-18T13:24:26.760Z,8.77
2018-02-18T13:26:55.210Z,9.04
2018-02-18T13:29:22.682Z,10.44
2018-02-18T13:31:50.534Z,10.30
2018-02-18T13:34:17.984Z,10.93
2018-02-18T13:36:45.444Z,10.47
2018-02-18T13:39:13.357Z,12.16
2018-02-18T13:41:40.806Z,9.35
2018-02-18T13:44:08.270Z,8.81
2018-02-18T13:46:36.042Z,8.27
2018-02-18T13:49:03.504Z,8.90
2018-02-18T13:51:31.714Z,8.87
2018-02-18T13:53:59.656Z,8.19
2018-02-18T13:56:27.112Z,7.97
2018-02-18T13:58:54.570Z,7.60
2018-02-18T14:01:22.654Z,7.50
2018-02-18T14:03:50.120Z,6.72
2018-02-18T14:06:17.578Z,6.93
2018-02-18T14:08:45.347Z,7.22
2018-02-18T14:11:12.803Z,6.56
2018-02-18T14:13:40.262Z,6.45
2018-02-18T14:16:08.025Z,6.41
2018-02-18T14:18:35.534Z,6.41
2018-02-18T14:21:02.993Z,6.26
2018-02-18T14:23:30.758Z,6.34
2018-02-18T14:25:58.221Z,7.56
2018-02-18T14:28:26.617Z,7.22
2018-02-18T14:30:54.318Z,6.57
2018-02-18T14:33:21.787Z,5.78
2018-02-18T14:35:49.235Z,5.68
2018-02-18T14:38:17.009Z,5.70
2018-02-18T14:40:44.461Z,5.72
2018-02-18T14:43:23.906Z,5.74
2018-02-18T14:46:02.960Z,5.83
2018-02-18T14:48:42.341Z,6.03
2018-02-18T14:51:21.480Z,5.52
2018-02-18T14:54:01.073Z,5.13
2018-02-18T14:56:40.187Z,5.34
2018-02-18T14:59:07.949Z,5.18
2018-02-18T15:01:35.405Z,5.17
2018-02-18T15:04:02.864Z,5.11
2018-02-18T15:06:30.691Z,5.18
2018-02-18T15:08:58.153Z,5.06
2018-02-18T15:11:25.875Z,5.30
2018-02-18T15:13:53.640Z,5.26
2018-02-18T15:16:21.106Z,4.90
2018-02-18T15:18:48.578Z,4.48
2018-02-18T15:21:16.356Z,4.79
2018-02-18T15:23:43.809Z,4.79
2018-02-18T15:26:11.269Z,4.82
2018-02-18T15:28:39.621Z,4.70
2018-02-18T15:31:07.093Z,5.00
2018-02-18T15:33:34.537Z,4.86
2018-02-18T15:36:02.310Z,4.65
2018-02-18T15:38:29.783Z,4.81
2018-02-18T15:40:57.242Z,4.78
2018-02-18T15:43:24.824Z,4.45
2018-02-18T15:45:52.293Z,4.71
2018-02-18T15:48:19.749Z,4.51
2018-02-18T15:50:47.710Z,4.32
2018-02-18T15:53:15.159Z,4.30
2018-02-18T15:55:42.621Z,4.05
2018-02-18T15:58:10.368Z,3.92
2018-02-18T16:00:37.822Z,4.07
2018-02-18T16:03:05.342Z,4.28
2018-02-18T16:05:33.073Z,4.26
2018-02-18T16:08:00.716Z,4.20
2018-02-18T16:10:28.196Z,4.13
2018-02-18T16:12:56.078Z,4.02
2018-02-18T16:15:23.528Z,3.98
2018-02-18T16:17:50.986Z,3.90
2018-02-18T16:20:19.050Z,4.15
2018-02-18T16:22:46.493Z,4.05
2018-02-18T16:25:13.944Z,3.93
2018-02-18T16:27:41.613Z,3.72
2018-02-18T16:30:09.581Z,3.91
2018-02-18T16:32:37.048Z,3.84
2018-02-18T16:35:05.028Z,3.83
2018-02-18T16:37:32.474Z,3.62
2018-02-18T16:39:59.936Z,3.63
2018-02-18T16:42:27.924Z,3.43
2018-02-18T16:44:55.394Z,3.76
2018-02-18T16:47:22.864Z,3.51
2018-02-18T16:49:50.551Z,3.70
2018-02-18T16:52:18.010Z,3.59
2018-02-18T16:54:45.469Z,3.76
2018-02-18T16:57:13.338Z,3.36
2018-02-18T16:59:40.794Z,3.40
2018-02-18T17:02:08.264Z,3.34
2018-02-18T17:04:36.107Z,3.39
2018-02-18T17:07:03.568Z,3.50
2018-02-18T17:09:31.030Z,3.25
2018-02-18T17:11:58.826Z,3.46
2018-02-18T17:14:26.295Z,3.41
2018-02-18T17:16:53.761Z,3.26
2018-02-18T17:19:21.676Z,3.32
2018-02-18T17:21:49.136Z,3.49
2018-02-18T17:24:16.602Z,3.36
2018-02-18T17:26:44.453Z,3.44
2018-02-18T17:29:11.915Z,3.37
2018-02-18T17:31:40.069Z,3.41
2018-02-18T17:34:08.027Z,3.44
2018-02-18T17:36:35.684Z,3.38
2018-02-18T17:39:02.967Z,3.27
2018-02-18T17:41:31.025Z,3.27
2018-02-18T17:43:58.491Z,3.27
2018-02-18T17:46:25.955Z,3.29
2018-02-18T17:48:54.369Z,3.32
2018-02-18T17:51:21.829Z,3.46
2018-02-18T17:53:49.292Z,3.35
2018-02-18T17:56:17.045Z,3.19
2018-02-18T17:58:44.512Z,3.23
2018-02-18T18:01:11.981Z,3.13
2018-02-18T18:03:39.760Z,3.19
2018-02-18T18:06:07.217Z,3.11
2018-02-18T18:08:34.682Z,3.23
2018-02-18T18:11:02.436Z,3.22
2018-02-18T18:13:29.920Z,3.16
2018-02-18T18:15:57.386Z,3.23
2018-02-18T18:18:25.412Z,3.04
2018-02-18T18:20:52.864Z,3.23
2018-02-18T18:23:20.338Z,3.14
2018-02-18T18:25:47.971Z,3.28
2018-02-18T18:28:15.426Z,3.19
2018-02-18T18:30:42.882Z,3.04
2018-02-18T18:33:11.970Z,2.94
2018-02-18T18:35:39.434Z,2.90
2018-02-18T18:38:06.895Z,2.91
2018-02-18T18:40:34.709Z,3.13
2018-02-18T18:43:02.158Z,3.06
2018-02-18T18:45:29.618Z,3.03
2018-02-18T18:47:57.443Z,2.86
2018-02-18T18:50:24.912Z,3.14
2018-02-18T18:52:52.372Z,3.20
2018-02-18T18:55:20.082Z,3.10
2018-02-18T18:57:47.543Z,3.17
2018-02-18T19:00:15.013Z,3.07
2018-02-18T19:02:42.772Z,3.05
2018-02-18T19:05:10.232Z,3.25
2018-02-18T19:07:37.701Z,3.01
2018-02-18T19:10:05.469Z,3.19
2018-02-18T19:12:32.938Z,3.08
2018-02-18T19:15:00.393Z,2.87
2018-02-18T19:17:28.130Z,2.92
2018-02-18T19:19:55.613Z,2.83
2018-02-18T19:22:23.065Z,2.93
2018-02-18T19:24:51.141Z,3.05
2018-02-18T19:27:18.629Z,3.14
2018-02-18T19:29:46.087Z,3.06
2018-02-18T19:32:13.820Z,2.95
2018-02-18T19:34:41.669Z,2.98
2018-02-18T19:37:09.152Z,3.10
2018-02-18T19:39:37.133Z,3.11
2018-02-18T19:42:04.595Z,3.06
2018-02-18T19:44:32.052Z,3.01
2018-02-18T19:46:59.762Z,3.21
2018-02-18T19:49:27.221Z,3.16
2018-02-18T19:51:54.675Z,3.17
2018-02-18T19:54:22.519Z,3.04
2018-02-18T19:56:49.972Z,3.08
2018-02-18T19:59:17.423Z,3.12
2018-02-18T20:01:45.186Z,3.17
2018-02-18T20:04:12.636Z,3.29
2018-02-18T20:06:40.084Z,3.10
2018-02-18T20:09:08.171Z,3.18
2018-02-18T20:11:35.629Z,3.20
2018-02-18T20:14:03.081Z,2.97
2018-02-18T20:16:30.860Z,3.10
2018-02-18T20:18:58.320Z,3.12
2018-02-18T20:21:25.777Z,3.15
2018-02-18T20:23:53.547Z,3.25
2018-02-18T20:26:21.003Z,3.08
2018-02-18T20:28:48.467Z,3.02
2018-02-18T20:31:16.241Z,3.12
2018-02-18T20:33:43.706Z,3.22
2018-02-18T20:36:11.534Z,3.25
2018-02-18T20:38:39.325Z,3.15
2018-02-18T20:41:06.783Z,2.98
2018-02-18T20:43:34.232Z,2.91
2018-02-18T20:46:01.967Z,2.84
2018-02-18T20:48:29.426Z,2.97
2018-02-18T20:50:56.881Z,2.96
2018-02-18T20:53:24.660Z,2.85
2018-02-18T20:55:52.124Z,2.72
2018-02-18T20:58:19.722Z,2.75
2018-02-18T21:00:47.366Z,2.85
2018-02-18T21:03:14.824Z,2.76
2018-02-18T21:05:42.289Z,2.93
2018-02-18T21:08:10.009Z,2.96
2018-02-18T21:10:37.487Z,2.79
2018-02-18T21:13:05.162Z,2.88
2018-02-18T21:15:32.833Z,2.67
2018-02-18T21:18:00.286Z,2.71
2018-02-18T21:20:27.754Z,2.81
2018-02-18T21:22:55.666Z,2.93
2018-02-18T21:25:23.118Z,2.81
2018-02-18T21:27:50.571Z,2.75
2018-02-18T21:30:18.348Z,2.82
2018-02-18T21:32:45.797Z,3.08
2018-02-18T21:35:13.254Z,2.96
2018-02-18T21:37:41.497Z,2.81
2018-02-18T21:40:08.958Z,3.02
2018-02-18T21:42:36.416Z,2.99
2018-02-18T21:45:04.335Z,3.02
2018-02-18T21:47:31.797Z,2.92
2018-02-18T21:49:59.308Z,3.02
2018-02-18T21:52:27.666Z,3.08
2018-02-18T21:54:55.658Z,3.08
2018-02-18T21:57:23.116Z,2.89
2018-02-18T21:59:50.986Z,3.03
2018-02-18T22:02:18.438Z,2.97
2018-02-18T22:04:46.225Z,2.97
2018-02-18T22:07:13.926Z,3.05
2018-02-18T22:09:41.371Z,3.09
2018-02-18T22:12:08.827Z,3.23
2018-02-18T22:14:36.804Z,3.18
2018-02-18T22:17:04.248Z,3.20
2018-02-18T22:19:31.693Z,3.18
2018-02-18T22:21:59.604Z,2.83
2018-02-18T22:24:27.078Z,3.04
2018-02-18T22:26:54.528Z,2.91
2018-02-18T22:29:22.297Z,2.66
2018-02-18T22:31:49.753Z,2.71
2018-02-18T22:34:17.218Z,2.73
2018-02-18T22:36:44.934Z,2.99
2018-02-18T22:39:12.523Z,2.81
2018-02-18T22:41:39.970Z,2.99
2018-02-18T22:44:07.927Z,2.64
2018-02-18T22:46:35.381Z,2.63
2018-02-18T22:49:02.847Z,2.64
2018-02-18T22:51:30.478Z,2.63
2018-02-18T22:53:57.921Z,2.61
2018-02-18T22:56:25.370Z,2.67
2018-02-18T22:58:53.362Z,2.68
2018-02-18T23:01:20.816Z,2.68
2018-02-18T23:03:48.363Z,2.66
2018-02-18T23:06:16.100Z,2.54
2018-02-18T23:08:43.563Z,2.61
2018-02-18T23:11:11.019Z,2.63
2018-02-18T23:13:39.031Z,2.70
2018-02-18T23:16:06.478Z,2.76
2018-02-18T23:18:33.929Z,2.72
2018-02-18T23:21:09.398Z,2.66
2018-02-18T23:23:36.864Z,2.75
2018-02-18T23:26:04.307Z,2.73
2018-02-18T23:28:32.159Z,2.77
2018-02-18T23:30:59.616Z,2.78
2018-02-18T23:33:27.070Z,2.84
2018-02-18T23:35:54.791Z,2.89
2018-02-18T23:38:22.244Z,2.85
2018-02-18T23:40:50.373Z,2.63
2018-02-18T23:43:18.078Z,2.67
2018-02-18T23:45:45.540Z,2.60
2018-02-18T23:48:12.993Z,2.57
2018-02-18T23:50:40.765Z,2.67
2018-02-18T23:53:08.218Z,2.44
2018-02-18T23:55:35.674Z,2.49
2018-02-18T23:58:03.458Z,2.46
